createdAt,value
2023-01-09T00:00:36.454Z,2.20
2023-01-09T00:03:03.459Z,1.93
2023-01-09T00:05:30.408Z,2.17
2023-01-09T00:07:57.293Z,2.63
2023-01-09T00:10:24.316Z,2.93
2023-01-09T00:12:51.282Z,2.67
2023-01-09T00:15:18.340Z,1.73
2023-01-09T00:17:48.173Z,2.10
2023-01-09T00:20:15.041Z,2.07
2023-01-09T00:22:42.004Z,2.53
2023-01-09T00:25:09.444Z,2.03
2023-01-09T00:27:36.899Z,2.20
2023-01-09T00:30:04.371Z,2.20
2023-01-09T00:32:31.306Z,2.30
2023-01-09T00:34:58.182Z,2.20
2023-01-09T00:37:25.165Z,2.70
2023-01-09T00:39:52.105Z,2.63
2023-01-09T00:42:22.224Z,2.37
2023-01-09T00:44:52.839Z,2.23
2023-01-09T00:47:23.686Z,2.40
2023-01-09T00:49:51.214Z,2.60
2023-01-09T00:52:18.737Z,2.07
2023-01-09T00:54:46.476Z,3.00
2023-01-09T00:57:14.127Z,2.60
2023-01-09T00:59:41.763Z,2.27
2023-01-09T01:02:09.040Z,2.47
2023-01-09T01:04:54.676Z,2.73
2023-01-09T01:07:40.101Z,2.80
2023-01-09T01:10:11.905Z,1.90
2023-01-09T01:12:39.768Z,1.80
2023-01-09T01:15:08.041Z,1.73
2023-01-09T01:17:37.089Z,1.63
2023-01-09T01:20:11.306Z,2.20
2023-01-09T01:22:38.296Z,1.63
2023-01-09T01:25:05.998Z,1.57
2023-01-09T01:27:32.909Z,2.10
2023-01-09T01:29:59.788Z,2.23
2023-01-09T01:32:26.796Z,2.23
2023-01-09T01:34:54.435Z,1.60
2023-01-09T01:37:23.019Z,2.10
2023-01-09T01:39:50.002Z,2.13
2023-01-09T01:42:17.087Z,1.80
2023-01-09T01:45:08.014Z,1.30
2023-01-09T01:47:43.729Z,1.27
2023-01-09T01:50:20.777Z,1.10
2023-01-09T01:52:53.680Z,1.47
2023-01-09T01:55:20.826Z,1.50
2023-01-09T01:57:49.839Z,1.77
2023-01-09T02:00:18.629Z,1.60
2023-01-09T02:02:46.174Z,2.47
2023-01-09T02:05:13.271Z,2.10
2023-01-09T02:07:40.198Z,1.97
2023-01-09T02:10:07.863Z,1.87
2023-01-09T02:12:34.742Z,2.17
2023-01-09T02:15:08.739Z,1.60
2023-01-09T02:18:18.659Z,2.20
2023-01-09T02:20:57.290Z,1.43
2023-01-09T02:23:39.513Z,1.80
2023-01-09T02:26:24.918Z,2.30
2023-01-09T02:29:16.603Z,1.40
2023-01-09T02:31:50.987Z,1.70
2023-01-09T02:34:36.922Z,1.70
2023-01-09T02:37:48.138Z,2.30
2023-01-09T02:40:27.205Z,2.10
2023-01-09T02:42:55.896Z,2.17
2023-01-09T02:45:22.854Z,2.13
2023-01-09T02:47:49.807Z,1.70
2023-01-09T02:50:47.659Z,2.30
2023-01-09T02:53:29.701Z,2.77
2023-01-09T02:56:27.282Z,2.10
2023-01-09T02:59:47.751Z,2.10
2023-01-09T03:02:35.620Z,2.03
2023-01-09T03:05:11.362Z,2.53
2023-01-09T03:08:01.572Z,1.47
2023-01-09T03:10:56.422Z,2.43
2023-01-09T03:13:25.445Z,1.67
2023-01-09T03:15:54.396Z,1.90
2023-01-09T03:18:23.849Z,3.23
2023-01-09T03:20:52.200Z,2.27
2023-01-09T03:23:19.170Z,2.07
2023-01-09T03:25:46.077Z,2.00
2023-01-09T03:28:31.202Z,1.50
2023-01-09T03:30:58.071Z,1.77
2023-01-09T03:33:24.955Z,1.70
2023-01-09T03:35:51.898Z,1.97
2023-01-09T03:38:18.777Z,1.83
2023-01-09T03:40:45.711Z,2.43
2023-01-09T03:43:12.794Z,2.10
2023-01-09T03:45:39.775Z,2.00
2023-01-09T03:48:06.988Z,2.00
2023-01-09T03:50:34.003Z,1.37
2023-01-09T03:53:01.263Z,2.10
2023-01-09T03:55:28.524Z,1.70
2023-01-09T03:57:55.449Z,1.67
2023-01-09T04:00:22.533Z,1.60
2023-01-09T04:02:49.471Z,1.80
2023-01-09T04:05:16.772Z,2.17
2023-01-09T04:07:43.711Z,1.80
2023-01-09T04:10:12.219Z,1.70
2023-01-09T04:12:39.244Z,1.53
2023-01-09T04:15:06.748Z,1.30
2023-01-09T04:17:33.708Z,1.40
2023-01-09T04:20:00.700Z,1.50
2023-01-09T04:22:27.689Z,1.53
2023-01-09T04:24:54.643Z,1.27
2023-01-09T04:27:21.506Z,1.40
2023-01-09T04:29:48.413Z,1.70
2023-01-09T04:32:15.311Z,1.17
2023-01-09T04:34:42.274Z,1.80
2023-01-09T04:37:09.204Z,1.40
2023-01-09T04:39:36.470Z,1.50
2023-01-09T04:42:03.687Z,1.60
2023-01-09T04:44:30.667Z,1.50
2023-01-09T04:46:59.211Z,2.13
2023-01-09T04:49:26.591Z,1.60
2023-01-09T04:51:53.827Z,2.40
2023-01-09T04:54:21.331Z,2.20
2023-01-09T04:56:48.316Z,2.43
2023-01-09T04:59:15.229Z,2.00
2023-01-09T05:01:42.318Z,2.43
2023-01-09T05:04:09.361Z,2.93
2023-01-09T05:06:36.293Z,2.93
2023-01-09T05:09:03.645Z,2.67
2023-01-09T05:11:30.590Z,2.67
2023-01-09T05:13:57.547Z,2.07
2023-01-09T05:16:24.506Z,2.20
2023-01-09T05:18:56.674Z,2.50
2023-01-09T05:21:25.924Z,2.53
2023-01-09T05:23:53.096Z,2.90
2023-01-09T05:26:24.356Z,1.93
2023-01-09T05:28:56.663Z,1.87
2023-01-09T05:31:25.795Z,1.77
2023-01-09T05:33:53.288Z,1.37
2023-01-09T05:36:20.392Z,2.03
2023-01-09T05:38:47.284Z,1.93
2023-01-09T05:41:14.158Z,1.63
2023-01-09T05:43:41.160Z,1.23
2023-01-09T05:46:08.293Z,1.53
2023-01-09T05:48:35.456Z,1.00
2023-01-09T05:51:03.330Z,1.43
2023-01-09T05:53:30.210Z,1.57
2023-01-09T05:55:57.117Z,1.30
2023-01-09T05:58:24.046Z,1.17
2023-01-09T06:00:53.399Z,1.17
2023-01-09T06:03:20.575Z,0.90
2023-01-09T06:05:47.543Z,1.40
2023-01-09T06:08:14.491Z,1.47
2023-01-09T06:10:41.369Z,1.73
2023-01-09T06:13:08.300Z,1.23
2023-01-09T06:15:35.232Z,0.97
2023-01-09T06:18:02.145Z,1.00
2023-01-09T06:20:29.049Z,1.00
2023-01-09T06:22:55.992Z,1.63
2023-01-09T06:25:22.916Z,1.80
2023-01-09T06:27:50.341Z,1.40
2023-01-09T06:30:17.681Z,1.20
2023-01-09T06:32:44.813Z,1.77
2023-01-09T06:35:12.044Z,1.20
2023-01-09T06:37:38.948Z,1.73
2023-01-09T06:40:06.540Z,1.43
2023-01-09T06:42:33.519Z,2.27
2023-01-09T06:45:00.416Z,1.80
2023-01-09T06:47:27.375Z,1.40
2023-01-09T06:49:54.250Z,1.33
2023-01-09T06:52:21.271Z,1.60
2023-01-09T06:54:48.136Z,1.83
2023-01-09T06:57:16.419Z,1.43
2023-01-09T06:59:43.428Z,1.90
2023-01-09T07:02:21.213Z,1.90
2023-01-09T07:04:48.218Z,1.63
2023-01-09T07:07:15.312Z,1.77
2023-01-09T07:09:42.227Z,2.00
2023-01-09T07:12:09.163Z,1.93
2023-01-09T07:14:36.257Z,2.10
2023-01-09T07:17:03.868Z,1.60
2023-01-09T07:19:30.748Z,2.03
2023-01-09T07:21:57.660Z,2.40
2023-01-09T07:24:24.757Z,1.80
2023-01-09T07:26:51.678Z,1.97
2023-01-09T07:29:18.619Z,2.00
2023-01-09T07:31:45.503Z,1.73
2023-01-09T07:34:12.440Z,1.67
2023-01-09T07:36:39.379Z,1.30
2023-01-09T07:39:06.285Z,1.10
2023-01-09T07:41:33.157Z,1.10
2023-01-09T07:44:00.109Z,2.20
2023-01-09T07:46:28.521Z,1.60
2023-01-09T07:48:56.521Z,1.70
2023-01-09T07:51:23.466Z,1.30
2023-01-09T07:53:50.358Z,1.10
2023-01-09T07:56:17.237Z,1.20
2023-01-09T07:58:44.155Z,1.50
2023-01-09T08:01:11.219Z,1.67
2023-01-09T08:03:38.995Z,0.90
2023-01-09T08:06:06.036Z,1.13
2023-01-09T08:08:33.004Z,0.97
2023-01-09T08:10:59.930Z,1.47
2023-01-09T08:13:26.811Z,1.13
2023-01-09T08:15:53.858Z,1.43
2023-01-09T08:18:20.873Z,1.37
2023-01-09T08:20:51.403Z,1.03
2023-01-09T08:23:18.341Z,1.43
2023-01-09T08:25:45.265Z,1.17
2023-01-09T08:28:12.592Z,1.10
2023-01-09T08:30:39.800Z,1.53
2023-01-09T08:33:06.803Z,1.87
2023-01-09T08:35:34.048Z,1.53
2023-01-09T08:38:01.087Z,1.87
2023-01-09T08:40:28.519Z,1.77
2023-01-09T08:43:15.609Z,1.90
2023-01-09T08:46:01.167Z,1.70
2023-01-09T08:48:28.404Z,1.80
2023-01-09T08:50:55.350Z,2.60
2023-01-09T08:53:22.512Z,1.27
2023-01-09T08:55:49.507Z,2.30
2023-01-09T08:58:16.658Z,2.33
2023-01-09T09:00:43.647Z,1.80
2023-01-09T09:03:12.035Z,1.77
2023-01-09T09:05:39.008Z,2.27
2023-01-09T09:08:07.305Z,2.30
2023-01-09T09:10:34.425Z,1.80
2023-01-09T09:13:01.688Z,1.73
2023-01-09T09:15:29.289Z,2.90
2023-01-09T09:18:02.163Z,2.83
2023-01-09T09:20:31.607Z,1.97
2023-01-09T09:22:59.082Z,2.70
2023-01-09T09:25:26.586Z,2.17
2023-01-09T09:27:56.077Z,2.50
2023-01-09T09:30:23.651Z,2.03
2023-01-09T09:32:51.126Z,2.17
2023-01-09T09:35:18.923Z,2.30
2023-01-09T09:37:57.124Z,1.97
2023-01-09T09:40:42.854Z,1.63
2023-01-09T09:43:48.744Z,2.30
2023-01-09T09:46:28.805Z,3.23
2023-01-09T09:49:07.027Z,3.30
2023-01-09T09:52:12.726Z,2.80
2023-01-09T09:54:43.039Z,1.90
2023-01-09T09:57:15.987Z,2.00
2023-01-09T09:59:43.903Z,2.70
2023-01-09T10:02:33.539Z,2.63
2023-01-09T10:05:15.960Z,3.23
2023-01-09T10:07:48.037Z,3.13
2023-01-09T10:10:27.883Z,2.97
2023-01-09T10:12:57.751Z,3.03
2023-01-09T10:15:39.520Z,2.90
2023-01-09T10:18:31.078Z,3.80
2023-01-09T10:21:09.923Z,3.10
2023-01-09T10:23:42.923Z,3.70
2023-01-09T10:26:17.435Z,2.90
2023-01-09T10:29:20.449Z,2.50
2023-01-09T10:32:03.230Z,2.07
2023-01-09T10:34:39.446Z,2.30
2023-01-09T10:37:15.885Z,3.27
2023-01-09T10:40:01.536Z,1.87
2023-01-09T10:42:32.327Z,1.53
2023-01-09T10:45:08.082Z,1.40
2023-01-09T10:47:37.940Z,1.27
2023-01-09T10:50:27.492Z,1.77
2023-01-09T10:52:56.235Z,1.90
2023-01-09T10:55:41.948Z,2.20
2023-01-09T10:58:14.031Z,1.67
2023-01-09T11:00:41.446Z,1.60
2023-01-09T11:03:20.928Z,1.50
2023-01-09T11:05:58.022Z,1.80
2023-01-09T11:08:35.958Z,2.00
2023-01-09T11:11:04.830Z,1.60
2023-01-09T11:13:37.028Z,1.50
2023-01-09T11:16:20.444Z,1.83
2023-01-09T11:18:59.720Z,1.90
2023-01-09T11:21:40.807Z,2.10
2023-01-09T11:24:19.664Z,1.80
2023-01-09T11:26:47.524Z,2.23
2023-01-09T11:29:16.942Z,2.70
2023-01-09T11:31:58.569Z,3.07
2023-01-09T11:34:30.795Z,2.77
2023-01-09T11:37:08.468Z,2.57
2023-01-09T11:39:41.414Z,2.23
2023-01-09T11:42:19.432Z,2.30
2023-01-09T11:44:46.611Z,2.50
2023-01-09T11:47:38.659Z,3.47
2023-01-09T11:50:17.116Z,2.30
2023-01-09T11:52:44.190Z,1.73
2023-01-09T11:55:19.317Z,3.90
2023-01-09T11:57:46.223Z,5.87
2023-01-09T12:00:35.591Z,4.50
2023-01-09T12:03:24.841Z,3.27
2023-01-09T12:06:11.480Z,3.23
2023-01-09T12:08:50.435Z,2.50
2023-01-09T12:11:32.367Z,1.93
2023-01-09T12:14:02.232Z,2.00
2023-01-09T12:17:06.513Z,1.30
2023-01-09T12:20:14.513Z,2.90
2023-01-09T12:22:49.651Z,2.30
2023-01-09T12:25:34.277Z,1.70
2023-01-09T12:28:29.926Z,1.50
2023-01-09T12:31:27.303Z,1.73
2023-01-09T12:34:12.812Z,1.10
2023-01-09T12:36:48.416Z,1.33
2023-01-09T12:39:24.528Z,2.20
2023-01-09T12:42:06.210Z,2.37
2023-01-09T12:44:50.016Z,2.13
2023-01-09T12:47:53.580Z,1.70
2023-01-09T12:50:32.161Z,2.20
2023-01-09T12:53:22.435Z,1.90
2023-01-09T12:56:25.816Z,4.00
2023-01-09T12:58:56.253Z,4.37
2023-01-09T13:01:29.283Z,3.50
2023-01-09T13:04:10.162Z,4.17
2023-01-09T13:06:39.850Z,4.53
2023-01-09T13:09:39.323Z,1.90
2023-01-09T13:12:13.361Z,2.40
2023-01-09T13:14:48.180Z,1.30
2023-01-09T13:17:20.616Z,2.70
2023-01-09T13:19:47.621Z,3.43
2023-01-09T13:22:15.375Z,2.83
2023-01-09T13:25:15.335Z,2.10
2023-01-09T13:27:43.080Z,1.40
2023-01-09T13:30:21.694Z,1.57
2023-01-09T13:33:10.413Z,1.93
2023-01-09T13:35:49.513Z,1.80
2023-01-09T13:38:22.102Z,1.50
2023-01-09T13:41:39.570Z,1.50
2023-01-09T13:44:25.933Z,1.60
2023-01-09T13:46:55.634Z,1.40
2023-01-09T13:49:34.327Z,1.67
2023-01-09T13:52:05.894Z,1.87
2023-01-09T13:54:51.539Z,1.73
2023-01-09T13:57:18.416Z,2.40
2023-01-09T13:59:46.472Z,1.73
2023-01-09T14:02:49.947Z,1.50
2023-01-09T14:05:36.754Z,1.90
2023-01-09T14:08:12.266Z,2.40
2023-01-09T14:10:46.506Z,2.27
2023-01-09T14:13:21.459Z,2.23
2023-01-09T14:15:49.882Z,2.73
2023-01-09T14:18:28.739Z,1.97
2023-01-09T14:21:01.172Z,2.20
2023-01-09T14:23:50.815Z,1.97
2023-01-09T14:26:24.652Z,1.87
2023-01-09T14:28:52.094Z,2.53
2023-01-09T14:31:32.882Z,3.77
2023-01-09T14:34:30.963Z,2.60
2023-01-09T14:37:00.180Z,2.97
2023-01-09T14:39:32.182Z,2.10
2023-01-09T14:42:09.422Z,1.80
2023-01-09T14:45:15.866Z,8.73
2023-01-09T14:47:48.805Z,6.23
2023-01-09T14:50:46.856Z,4.50
2023-01-09T14:53:26.394Z,4.23
2023-01-09T14:55:54.297Z,2.43
2023-01-09T14:58:26.924Z,4.23
2023-01-09T15:00:56.235Z,4.93
2023-01-09T15:03:23.429Z,3.77
2023-01-09T15:05:52.103Z,2.93
2023-01-09T15:08:23.391Z,1.57
2023-01-09T15:10:53.666Z,1.30
2023-01-09T15:13:35.855Z,2.40
2023-01-09T15:16:07.799Z,2.20
2023-01-09T15:18:41.477Z,1.43
2023-01-09T15:21:17.834Z,1.40
2023-01-09T15:23:44.908Z,1.30
2023-01-09T15:26:26.300Z,1.63
2023-01-09T15:28:55.064Z,1.87
2023-01-09T15:31:24.415Z,1.20
2023-01-09T15:33:53.833Z,2.03
2023-01-09T15:36:26.924Z,3.57
2023-01-09T15:38:54.664Z,2.70
2023-01-09T15:41:48.254Z,2.67
2023-01-09T15:44:21.917Z,3.17
2023-01-09T15:46:50.351Z,2.70
2023-01-09T15:49:17.572Z,1.80
2023-01-09T15:51:46.309Z,1.90
2023-01-09T15:54:25.555Z,1.30
2023-01-09T15:56:52.565Z,1.60
2023-01-09T15:59:30.128Z,1.77
2023-01-09T16:02:20.850Z,1.90
2023-01-09T16:04:48.090Z,1.80
2023-01-09T16:07:17.203Z,1.60
2023-01-09T16:09:47.678Z,1.93
2023-01-09T16:12:19.688Z,1.60
2023-01-09T16:14:52.164Z,1.80
2023-01-09T16:17:23.989Z,1.40
2023-01-09T16:19:55.969Z,2.80
2023-01-09T16:22:31.426Z,2.97
2023-01-09T16:25:03.645Z,2.40
2023-01-09T16:27:33.578Z,2.20
2023-01-09T16:30:05.525Z,2.40
2023-01-09T16:32:46.054Z,2.30
2023-01-09T16:35:18.921Z,2.80
2023-01-09T16:37:45.893Z,2.27
2023-01-09T16:40:18.269Z,2.63
2023-01-09T16:43:03.904Z,2.60
2023-01-09T16:45:36.645Z,1.77
2023-01-09T16:48:15.112Z,2.20
2023-01-09T16:50:42.976Z,2.50
2023-01-09T16:53:16.209Z,2.00
2023-01-09T16:55:43.698Z,2.50
2023-01-09T16:58:20.262Z,2.40
2023-01-09T17:00:48.327Z,1.83
2023-01-09T17:03:16.673Z,1.30
2023-01-09T17:05:44.319Z,1.97
2023-01-09T17:08:26.200Z,2.40
2023-01-09T17:10:54.362Z,3.33
2023-01-09T17:13:22.182Z,2.33
2023-01-09T17:15:49.811Z,2.37
2023-01-09T17:18:18.766Z,2.10
2023-01-09T17:20:47.749Z,2.10
2023-01-09T17:23:15.212Z,2.50
2023-01-09T17:26:01.114Z,2.67
2023-01-09T17:28:34.645Z,2.03
2023-01-09T17:31:09.211Z,2.60
2023-01-09T17:33:36.945Z,2.00
2023-01-09T17:36:06.155Z,2.03
2023-01-09T17:38:33.331Z,2.27
2023-01-09T17:41:00.494Z,2.33
2023-01-09T17:43:27.461Z,1.83
2023-01-09T17:45:54.549Z,1.90
2023-01-09T17:48:22.606Z,1.50
2023-01-09T17:50:49.873Z,1.90
2023-01-09T17:53:18.146Z,2.07
2023-01-09T17:55:45.101Z,2.60
2023-01-09T17:58:26.322Z,2.00
2023-01-09T18:00:53.490Z,1.80
2023-01-09T18:03:23.257Z,1.90
2023-01-09T18:05:51.372Z,2.17
2023-01-09T18:08:18.273Z,2.13
2023-01-09T18:10:48.726Z,1.97
2023-01-09T18:13:16.521Z,1.97
2023-01-09T18:15:44.295Z,2.07
2023-01-09T18:18:11.995Z,2.07
2023-01-09T18:20:42.555Z,2.47
2023-01-09T18:23:11.151Z,2.33
2023-01-09T18:25:42.492Z,2.10
2023-01-09T18:28:10.791Z,2.40
2023-01-09T18:30:37.760Z,2.23
2023-01-09T18:33:04.645Z,2.23
2023-01-09T18:35:33.995Z,2.17
2023-01-09T18:38:00.916Z,2.77
2023-01-09T18:40:28.062Z,2.43
2023-01-09T18:42:55.989Z,1.80
2023-01-09T18:45:22.921Z,1.63
2023-01-09T18:47:49.924Z,1.93
2023-01-09T18:50:17.067Z,1.57
2023-01-09T18:52:44.009Z,2.03
2023-01-09T18:55:11.111Z,2.23
2023-01-09T18:57:38.060Z,1.80
2023-01-09T19:00:05.678Z,1.90
2023-01-09T19:02:32.610Z,1.67
2023-01-09T19:04:59.656Z,1.97
2023-01-09T19:07:26.616Z,2.00
2023-01-09T19:09:53.570Z,1.63
2023-01-09T19:12:20.511Z,1.90
2023-01-09T19:14:47.507Z,2.83
2023-01-09T19:17:14.673Z,1.77
2023-01-09T19:19:41.681Z,1.67
2023-01-09T19:22:08.722Z,1.57
2023-01-09T19:24:35.729Z,2.10
2023-01-09T19:27:02.644Z,1.70
2023-01-09T19:29:29.859Z,1.60
2023-01-09T19:31:57.289Z,1.63
2023-01-09T19:34:24.410Z,1.80
2023-01-09T19:36:51.470Z,1.70
2023-01-09T19:39:18.389Z,1.63
2023-01-09T19:41:45.248Z,1.77
2023-01-09T19:44:12.206Z,1.77
2023-01-09T19:46:39.171Z,1.70
2023-01-09T19:49:06.345Z,1.60
2023-01-09T19:51:33.755Z,1.57
2023-01-09T19:54:03.334Z,1.80
2023-01-09T19:56:32.288Z,1.83
2023-01-09T19:59:01.478Z,2.10
2023-01-09T20:01:31.209Z,2.20
2023-01-09T20:04:02.979Z,1.70
2023-01-09T20:06:30.885Z,1.70
2023-01-09T20:09:00.351Z,1.40
2023-01-09T20:11:29.316Z,1.43
2023-01-09T20:13:56.852Z,1.67
2023-01-09T20:16:28.687Z,1.60
2023-01-09T20:18:57.794Z,1.60
2023-01-09T20:21:27.791Z,1.97
2023-01-09T20:23:56.788Z,1.90
2023-01-09T20:26:24.911Z,1.53
2023-01-09T20:28:52.339Z,1.93
2023-01-09T20:31:20.668Z,1.67
2023-01-09T20:33:48.497Z,2.37
2023-01-09T20:36:15.878Z,2.43
2023-01-09T20:38:43.298Z,1.93
2023-01-09T20:41:22.918Z,2.30
2023-01-09T20:43:51.054Z,1.60
2023-01-09T20:46:18.397Z,2.00
2023-01-09T20:48:45.719Z,1.90
2023-01-09T20:51:13.691Z,2.67
2023-01-09T20:53:48.383Z,2.70
2023-01-09T20:56:15.273Z,1.97
2023-01-09T20:58:42.645Z,3.03
2023-01-09T21:01:13.276Z,2.37
2023-01-09T21:03:41.246Z,2.63
2023-01-09T21:06:10.285Z,3.03
2023-01-09T21:08:37.475Z,2.50
2023-01-09T21:11:05.017Z,2.37
2023-01-09T21:13:32.281Z,2.80
2023-01-09T21:16:07.696Z,2.60
2023-01-09T21:18:35.869Z,3.00
2023-01-09T21:21:09.321Z,3.00
2023-01-09T21:23:37.027Z,4.07
2023-01-09T21:26:11.278Z,3.43
2023-01-09T21:28:49.068Z,3.60
2023-01-09T21:31:18.371Z,3.57
2023-01-09T21:33:45.733Z,3.27
2023-01-09T21:36:12.665Z,2.53
2023-01-09T21:38:39.592Z,3.10
2023-01-09T21:41:24.876Z,2.27
2023-01-09T21:44:10.538Z,2.90
2023-01-09T21:46:52.741Z,2.23
2023-01-09T21:49:20.722Z,2.83
2023-01-09T21:51:48.003Z,2.57
2023-01-09T21:54:14.985Z,2.73
2023-01-09T21:56:41.898Z,2.77
2023-01-09T21:59:09.149Z,2.90
2023-01-09T22:01:36.380Z,2.90
2023-01-09T22:04:03.335Z,2.77
2023-01-09T22:06:30.436Z,2.60
2023-01-09T22:08:57.345Z,2.30
2023-01-09T22:11:24.278Z,2.30
2023-01-09T22:13:51.603Z,2.43
2023-01-09T22:16:19.163Z,2.90
2023-01-09T22:18:46.294Z,3.10
2023-01-09T22:21:13.450Z,2.90
2023-01-09T22:23:40.355Z,3.23
2023-01-09T22:26:09.263Z,2.43
2023-01-09T22:28:36.130Z,2.97
2023-01-09T22:31:03.154Z,2.80
2023-01-09T22:33:30.079Z,3.63
2023-01-09T22:35:56.981Z,3.47
2023-01-09T22:38:23.921Z,3.20
2023-01-09T22:40:50.798Z,3.00
2023-01-09T22:43:17.688Z,3.40
2023-01-09T22:45:44.639Z,3.63
2023-01-09T22:48:11.574Z,3.87
2023-01-09T22:50:38.655Z,3.17
2023-01-09T22:53:05.595Z,2.70
2023-01-09T22:55:32.681Z,3.20
2023-01-09T22:57:59.984Z,3.47
2023-01-09T23:00:26.884Z,2.90
2023-01-09T23:02:53.885Z,2.63
2023-01-09T23:05:20.799Z,3.53
2023-01-09T23:07:47.696Z,2.80
2023-01-09T23:10:14.831Z,2.67
2023-01-09T23:12:46.880Z,2.60
2023-01-09T23:15:13.819Z,3.10
2023-01-09T23:17:40.770Z,2.70
2023-01-09T23:20:08.308Z,3.40
2023-01-09T23:22:35.216Z,2.83
2023-01-09T23:25:02.104Z,2.93
2023-01-09T23:27:29.276Z,2.77
2023-01-09T23:29:56.209Z,2.30
2023-01-09T23:32:23.153Z,2.87
2023-01-09T23:34:50.103Z,2.20
2023-01-09T23:37:17.105Z,3.20
2023-01-09T23:39:43.987Z,3.63
2023-01-09T23:42:30.444Z,3.20
2023-01-09T23:44:57.380Z,3.20
2023-01-09T23:47:24.369Z,2.60
2023-01-09T23:49:51.320Z,2.70
2023-01-09T23:52:18.310Z,2.23
2023-01-09T23:54:45.204Z,1.40
2023-01-09T23:57:12.137Z,1.30
2023-01-09T23:59:39.109Z,2.40
